sensor_id;sensor_type;location;lat;lon;timestamp;pressure;altitude;pressure_sealevel;temperature;humidity
35758;BME280;21879;50.110;18.900;2022-12-11T00:07:54;97462.34;;;1.34;76.82
35758;BME280;21879;50.110;18.900;2022-12-11T00:18:22;97438.25;;;1.42;76.76
35758;BME280;21879;50.110;18.900;2022-12-11T00:28:53;97417.86;;;1.41;76.48
35758;BME280;21879;50.110;18.900;2022-12-11T00:39:21;97417.16;;;1.41;76.30
35758;BME280;21879;50.110;18.900;2022-12-11T00:49:48;97417.56;;;1.49;76.70
35758;BME280;21879;50.110;18.900;2022-12-11T01:00:16;97416.02;;;1.48;76.18
35758;BME280;21879;50.110;18.900;2022-12-11T01:10:44;97423.64;;;1.34;75.88
35758;BME280;21879;50.110;18.900;2022-12-11T01:21:13;97414.54;;;1.30;75.89
35758;BME280;21879;50.110;18.900;2022-12-11T01:31:40;97405.84;;;1.36;76.14
35758;BME280;21879;50.110;18.900;2022-12-11T01:42:16;97393.00;;;1.36;75.75
35758;BME280;21879;50.110;18.900;2022-12-11T01:52:45;97390.27;;;1.40;75.65
35758;BME280;21879;50.110;18.900;2022-12-11T02:03:13;97388.71;;;1.34;75.66
35758;BME280;21879;50.110;18.900;2022-12-11T02:13:50;97389.74;;;1.35;75.46
35758;BME280;21879;50.110;18.900;2022-12-11T02:24:34;97388.19;;;1.32;75.55
35758;BME280;21879;50.110;18.900;2022-12-11T02:35:11;97389.19;;;1.28;75.96
35758;BME280;21879;50.110;18.900;2022-12-11T02:45:42;97383.39;;;1.32;75.80
35758;BME280;21879;50.110;18.900;2022-12-11T02:56:15;97369.15;;;1.29;75.59
35758;BME280;21879;50.110;18.900;2022-12-11T03:06:51;97364.34;;;1.27;75.63
35758;BME280;21879;50.110;18.900;2022-12-11T03:17:22;97363.79;;;1.20;75.34
35758;BME280;21879;50.110;18.900;2022-12-11T03:27:54;97363.61;;;1.18;75.64
35758;BME280;21879;50.110;18.900;2022-12-11T03:38:27;97368.70;;;1.10;75.63
35758;BME280;21879;50.110;18.900;2022-12-11T03:49:00;97350.20;;;1.08;75.64
35758;BME280;21879;50.110;18.900;2022-12-11T03:59:28;97347.64;;;1.11;75.78
35758;BME280;21879;50.110;18.900;2022-12-11T04:09:56;97342.14;;;1.07;75.79
35758;BME280;21879;50.110;18.900;2022-12-11T04:20:23;97333.44;;;1.11;75.73
35758;BME280;21879;50.110;18.900;2022-12-11T04:31:11;97335.79;;;1.04;75.59
35758;BME280;21879;50.110;18.900;2022-12-11T04:41:39;97321.54;;;0.96;75.23
35758;BME280;21879;50.110;18.900;2022-12-11T04:52:07;97323.91;;;0.91;75.72
35758;BME280;21879;50.110;18.900;2022-12-11T05:02:36;97321.55;;;0.96;75.67
35758;BME280;21879;50.110;18.900;2022-12-11T05:13:04;97316.22;;;0.95;75.33
35758;BME280;21879;50.110;18.900;2022-12-11T05:23:31;97313.27;;;0.88;75.17
35758;BME280;21879;50.110;18.900;2022-12-11T05:33:59;97303.48;;;0.84;75.12
35758;BME280;21879;50.110;18.900;2022-12-11T05:44:26;97306.92;;;0.85;75.29
35758;BME280;21879;50.110;18.900;2022-12-11T05:54:54;97300.45;;;0.90;75.37
35758;BME280;21879;50.110;18.900;2022-12-11T06:05:21;97309.50;;;0.87;75.36
35758;BME280;21879;50.110;18.900;2022-12-11T06:15:49;97314.47;;;0.86;75.12
35758;BME280;21879;50.110;18.900;2022-12-11T06:26:18;97322.34;;;0.86;75.04
35758;BME280;21879;50.110;18.900;2022-12-11T06:36:45;97326.14;;;0.92;75.25
35758;BME280;21879;50.110;18.900;2022-12-11T06:47:13;97328.48;;;0.84;74.74
35758;BME280;21879;50.110;18.900;2022-12-11T06:57:40;97332.77;;;0.85;75.08
35758;BME280;21879;50.110;18.900;2022-12-11T07:08:08;97330.68;;;0.83;74.93
35758;BME280;21879;50.110;18.900;2022-12-11T07:18:35;97336.66;;;0.78;74.84
35758;BME280;21879;50.110;18.900;2022-12-11T07:29:03;97338.82;;;0.70;74.49
35758;BME280;21879;50.110;18.900;2022-12-11T07:39:31;97347.50;;;0.66;74.43
35758;BME280;21879;50.110;18.900;2022-12-11T07:49:58;97368.19;;;0.64;74.35
35758;BME280;21879;50.110;18.900;2022-12-11T08:00:26;97367.36;;;0.67;74.57
35758;BME280;21879;50.110;18.900;2022-12-11T08:10:54;97358.23;;;0.59;74.37
35758;BME280;21879;50.110;18.900;2022-12-11T08:21:24;97360.33;;;0.44;74.51
35758;BME280;21879;50.110;18.900;2022-12-11T08:31:52;97362.39;;;0.46;74.65
35758;BME280;21879;50.110;18.900;2022-12-11T08:42:21;97368.02;;;0.44;74.68
35758;BME280;21879;50.110;18.900;2022-12-11T08:52:49;97376.05;;;0.44;74.21
35758;BME280;21879;50.110;18.900;2022-12-11T09:03:17;97374.96;;;0.36;74.27
35758;BME280;21879;50.110;18.900;2022-12-11T09:13:45;97369.14;;;0.37;74.10
35758;BME280;21879;50.110;18.900;2022-12-11T09:24:13;97362.20;;;0.42;74.51
35758;BME280;21879;50.110;18.900;2022-12-11T09:34:41;97366.33;;;0.45;74.10
35758;BME280;21879;50.110;18.900;2022-12-11T09:45:14;97370.27;;;0.47;73.88
35758;BME280;21879;50.110;18.900;2022-12-11T09:55:47;97355.89;;;0.46;73.47
35758;BME280;21879;50.110;18.900;2022-12-11T10:06:22;97350.27;;;0.49;73.11
35758;BME280;21879;50.110;18.900;2022-12-11T10:16:53;97353.40;;;0.55;72.93
35758;BME280;21879;50.110;18.900;2022-12-11T10:27:25;97353.48;;;0.64;72.60
35758;BME280;21879;50.110;18.900;2022-12-11T10:38:00;97347.97;;;0.60;72.27
35758;BME280;21879;50.110;18.900;2022-12-11T10:48:31;97348.12;;;0.58;72.04
35758;BME280;21879;50.110;18.900;2022-12-11T10:58:59;97333.74;;;0.57;72.13
35758;BME280;21879;50.110;18.900;2022-12-11T11:09:28;97323.33;;;0.59;72.23
35758;BME280;21879;50.110;18.900;2022-12-11T11:19:57;97327.58;;;0.55;71.74
35758;BME280;21879;50.110;18.900;2022-12-11T11:30:28;97317.21;;;0.44;71.49
35758;BME280;21879;50.110;18.900;2022-12-11T11:41:03;97320.14;;;0.24;71.16
35758;BME280;21879;50.110;18.900;2022-12-11T11:51:42;97315.55;;;0.26;71.40
35758;BME280;21879;50.110;18.900;2022-12-11T12:02:15;97313.85;;;0.28;70.94
35758;BME280;21879;50.110;18.900;2022-12-11T12:12:51;97308.69;;;0.25;70.70
35758;BME280;21879;50.110;18.900;2022-12-11T12:23:43;97313.85;;;0.29;70.84
35758;BME280;21879;50.110;18.900;2022-12-11T12:34:26;97317.52;;;0.37;70.81
35758;BME280;21879;50.110;18.900;2022-12-11T12:45:02;97310.75;;;0.47;70.79
35758;BME280;21879;50.110;18.900;2022-12-11T12:55:32;97324.05;;;0.42;70.67
35758;BME280;21879;50.110;18.900;2022-12-11T13:06:04;97340.34;;;0.27;70.51
35758;BME280;21879;50.110;18.900;2022-12-11T13:16:37;97334.09;;;0.16;70.69
35758;BME280;21879;50.110;18.900;2022-12-11T13:27:21;97343.27;;;-0.05;70.60
35758;BME280;21879;50.110;18.900;2022-12-11T13:37:51;97347.75;;;-0.17;70.64
35758;BME280;21879;50.110;18.900;2022-12-11T13:48:24;97352.33;;;-0.21;70.82
35758;BME280;21879;50.110;18.900;2022-12-11T13:58:54;97364.03;;;-0.12;71.24
35758;BME280;21879;50.110;18.900;2022-12-11T14:09:23;97369.05;;;-0.07;71.17
35758;BME280;21879;50.110;18.900;2022-12-11T14:19:53;97371.39;;;-0.11;71.14
35758;BME280;21879;50.110;18.900;2022-12-11T14:30:25;97382.48;;;-0.14;71.13
35758;BME280;21879;50.110;18.900;2022-12-11T14:40:56;97390.73;;;-0.37;70.75
35758;BME280;21879;50.110;18.900;2022-12-11T14:51:26;97383.86;;;-0.41;71.02
35758;BME280;21879;50.110;18.900;2022-12-11T15:02:01;97385.98;;;-0.34;71.13
35758;BME280;21879;50.110;18.900;2022-12-11T15:12:29;97390.86;;;-0.41;71.04
35758;BME280;21879;50.110;18.900;2022-12-11T15:22:59;97393.75;;;-0.41;71.53
35758;BME280;21879;50.110;18.900;2022-12-11T15:33:28;97393.02;;;-0.32;71.26
35758;BME280;21879;50.110;18.900;2022-12-11T15:44:02;97401.37;;;-0.47;70.86
35758;BME280;21879;50.110;18.900;2022-12-11T15:54:29;97405.71;;;-0.66;70.55
35758;BME280;21879;50.110;18.900;2022-12-11T16:04:57;97413.31;;;-0.73;70.72
35758;BME280;21879;50.110;18.900;2022-12-11T16:15:25;97420.09;;;-0.63;70.92
35758;BME280;21879;50.110;18.900;2022-12-11T16:25:53;97419.89;;;-0.53;70.99
35758;BME280;21879;50.110;18.900;2022-12-11T16:36:21;97417.63;;;-0.45;71.39
35758;BME280;21879;50.110;18.900;2022-12-11T16:46:48;97419.98;;;-0.46;71.03
35758;BME280;21879;50.110;18.900;2022-12-11T16:57:16;97428.27;;;-0.64;71.04
35758;BME280;21879;50.110;18.900;2022-12-11T17:07:43;97436.58;;;-0.80;70.71
35758;BME280;21879;50.110;18.900;2022-12-11T17:18:11;97438.75;;;-0.94;70.59
35758;BME280;21879;50.110;18.900;2022-12-11T17:28:39;97441.36;;;-0.91;71.06
35758;BME280;21879;50.110;18.900;2022-12-11T17:39:06;97443.04;;;-0.94;70.60
35758;BME280;21879;50.110;18.900;2022-12-11T17:49:34;97449.04;;;-1.02;70.66
35758;BME280;21879;50.110;18.900;2022-12-11T18:00:01;97451.20;;;-0.96;71.18
35758;BME280;21879;50.110;18.900;2022-12-11T18:10:29;97443.93;;;-0.80;71.32
35758;BME280;21879;50.110;18.900;2022-12-11T18:20:57;97440.88;;;-0.77;70.94
35758;BME280;21879;50.110;18.900;2022-12-11T18:31:24;97438.05;;;-0.85;70.70
35758;BME280;21879;50.110;18.900;2022-12-11T18:41:52;97433.77;;;-0.85;70.69
35758;BME280;21879;50.110;18.900;2022-12-11T18:52:39;97439.91;;;-0.62;70.94
35758;BME280;21879;50.110;18.900;2022-12-11T19:03:07;97449.69;;;-0.35;70.86
35758;BME280;21879;50.110;18.900;2022-12-11T19:13:36;97453.88;;;-0.28;70.56
35758;BME280;21879;50.110;18.900;2022-12-11T19:24:04;97452.45;;;-0.32;70.39
35758;BME280;21879;50.110;18.900;2022-12-11T19:34:34;97446.34;;;-0.15;70.53
35758;BME280;21879;50.110;18.900;2022-12-11T19:45:04;97443.60;;;-0.16;70.11
35758;BME280;21879;50.110;18.900;2022-12-11T19:55:32;97446.61;;;-0.21;69.86
35758;BME280;21879;50.110;18.900;2022-12-11T20:06:03;97447.75;;;-0.39;69.77
35758;BME280;21879;50.110;18.900;2022-12-11T20:16:32;97454.69;;;-0.44;69.69
35758;BME280;21879;50.110;18.900;2022-12-11T20:27:19;97460.54;;;-0.64;69.35
35758;BME280;21879;50.110;18.900;2022-12-11T20:37:48;97465.29;;;-0.89;69.17
35758;BME280;21879;50.110;18.900;2022-12-11T20:48:14;97463.58;;;-1.10;69.09
35758;BME280;21879;50.110;18.900;2022-12-11T20:58:41;97462.09;;;-1.28;69.11
35758;BME280;21879;50.110;18.900;2022-12-11T21:09:13;97459.19;;;-1.28;69.73
35758;BME280;21879;50.110;18.900;2022-12-11T21:19:42;97454.41;;;-1.07;70.10
35758;BME280;21879;50.110;18.900;2022-12-11T21:30:11;97456.73;;;-0.90;70.15
35758;BME280;21879;50.110;18.900;2022-12-11T21:40:39;97454.84;;;-0.81;70.11
35758;BME280;21879;50.110;18.900;2022-12-11T21:51:09;97455.78;;;-0.86;69.68
35758;BME280;21879;50.110;18.900;2022-12-11T22:01:40;97455.15;;;-0.93;69.61
35758;BME280;21879;50.110;18.900;2022-12-11T22:12:08;97453.69;;;-1.00;69.56
35758;BME280;21879;50.110;18.900;2022-12-11T22:22:36;97455.91;;;-0.99;69.89
35758;BME280;21879;50.110;18.900;2022-12-11T22:33:03;97452.59;;;-0.94;69.98
35758;BME280;21879;50.110;18.900;2022-12-11T22:43:31;97447.19;;;-0.79;69.85
35758;BME280;21879;50.110;18.900;2022-12-11T22:53:59;97451.21;;;-0.84;69.78
35758;BME280;21879;50.110;18.900;2022-12-11T23:04:26;97446.36;;;-0.99;69.72
35758;BME280;21879;50.110;18.900;2022-12-11T23:14:54;97436.55;;;-1.04;70.02
35758;BME280;21879;50.110;18.900;2022-12-11T23:25:21;97432.81;;;-1.03;70.03
35758;BME280;21879;50.110;18.900;2022-12-11T23:35:49;97434.52;;;-1.04;70.14
35758;BME280;21879;50.110;18.900;2022-12-11T23:46:18;97431.52;;;-0.99;70.06
35758;BME280;21879;50.110;18.900;2022-12-11T23:56:46;97429.79;;;-0.89;70.27
